sensor_id;sensor_type;location;lat;lon;timestamp;pressure;altitude;pressure_sealevel;temperature;humidity
7022;BME280;3552;42.664;23.406;2022-12-24T00:00:02;49772.81;;;-141.28;100.00
7022;BME280;3552;42.664;23.406;2022-12-24T00:02:29;49751.25;;;-141.28;100.00
7022;BME280;3552;42.664;23.406;2022-12-24T00:04:57;49774.78;;;-141.28;100.00
7022;BME280;3552;42.664;23.406;2022-12-24T00:07:24;49761.06;;;-141.28;100.00
7022;BME280;3552;42.664;23.406;2022-12-24T00:09:51;49757.13;;;-141.28;100.00
7022;BME280;3552;42.664;23.406;2022-12-24T00:12:18;49763.00;;;-141.28;100.00
7022;BME280;3552;42.664;23.406;2022-12-24T00:14:45;49741.44;;;-141.28;100.00
7022;BME280;3552;42.664;23.406;2022-12-24T00:17:13;49780.69;;;-141.28;100.00
7022;BME280;3552;42.664;23.406;2022-12-24T00:19:40;49780.69;;;-141.28;100.00
7022;BME280;3552;42.664;23.406;2022-12-24T00:22:10;49784.59;;;-141.28;100.00
7022;BME280;3552;42.664;23.406;2022-12-24T00:24:36;49819.94;;;-141.28;100.00
7022;BME280;3552;42.664;23.406;2022-12-24T00:27:03;49825.81;;;-141.28;100.00
7022;BME280;3552;42.664;23.406;2022-12-24T00:29:30;49812.06;;;-141.28;100.00
7022;BME280;3552;42.664;23.406;2022-12-24T00:31:57;49827.78;;;-141.28;100.00
7022;BME280;3552;42.664;23.406;2022-12-24T00:34:24;49837.59;;;-141.28;100.00
7022;BME280;3552;42.664;23.406;2022-12-24T00:36:52;49831.69;;;-141.28;100.00
7022;BME280;3552;42.664;23.406;2022-12-24T00:39:20;49857.22;;;-141.28;100.00
7022;BME280;3552;42.664;23.406;2022-12-24T00:41:47;49861.13;;;-141.28;100.00
7022;BME280;3552;42.664;23.406;2022-12-24T00:44:14;49833.66;;;-141.28;100.00
7022;BME280;3552;42.664;23.406;2022-12-24T00:46:41;49865.06;;;-141.28;100.00
7022;BME280;3552;42.664;23.406;2022-12-24T00:49:08;49898.44;;;-141.28;100.00
7022;BME280;3552;42.664;23.406;2022-12-24T00:51:37;49863.09;;;-141.28;100.00
7022;BME280;3552;42.664;23.406;2022-12-24T00:54:04;49902.34;;;-141.28;100.00
7022;BME280;3552;42.664;23.406;2022-12-24T00:56:33;49870.94;;;-141.28;100.00
7022;BME280;3552;42.664;23.406;2022-12-24T00:59:00;49886.66;;;-141.28;100.00
7022;BME280;3552;42.664;23.406;2022-12-24T01:01:27;49906.28;;;-141.28;100.00
7022;BME280;3552;42.664;23.406;2022-12-24T01:03:55;49914.13;;;-141.28;100.00
7022;BME280;3552;42.664;23.406;2022-12-24T01:06:43;49939.63;;;-141.28;100.00
7022;BME280;3552;42.664;23.406;2022-12-24T01:09:09;49914.13;;;-141.28;100.00
7022;BME280;3552;42.664;23.406;2022-12-24T01:11:37;49898.44;;;-141.28;100.00
7022;BME280;3552;42.664;23.406;2022-12-24T01:14:04;49921.97;;;-141.28;100.00
7022;BME280;3552;42.664;23.406;2022-12-24T01:16:31;49943.56;;;-141.28;100.00
7022;BME280;3552;42.664;23.406;2022-12-24T01:18:58;49918.06;;;-141.28;100.00
7022;BME280;3552;42.664;23.406;2022-12-24T01:21:25;49914.13;;;-141.28;100.00
7022;BME280;3552;42.664;23.406;2022-12-24T01:23:53;49976.94;;;-141.28;100.00
7022;BME280;3552;42.664;23.406;2022-12-24T01:26:20;49969.06;;;-141.28;100.00
7022;BME280;3552;42.664;23.406;2022-12-24T01:28:49;49976.94;;;-141.28;100.00
7022;BME280;3552;42.664;23.406;2022-12-24T01:31:17;49978.88;;;-141.28;100.00
7022;BME280;3552;42.664;23.406;2022-12-24T01:33:45;49980.84;;;-141.28;100.00
7022;BME280;3552;42.664;23.406;2022-12-24T01:36:12;49980.84;;;-141.28;100.00
7022;BME280;3552;42.664;23.406;2022-12-24T01:38:39;49976.94;;;-141.28;100.00
7022;BME280;3552;42.664;23.406;2022-12-24T01:41:13;49933.75;;;-141.28;100.00
7022;BME280;3552;42.664;23.406;2022-12-24T01:44:17;49957.31;;;-141.28;100.00
7022;BME280;3552;42.664;23.406;2022-12-24T01:46:44;49969.06;;;-141.28;100.00
7022;BME280;3552;42.664;23.406;2022-12-24T01:49:13;49965.16;;;-141.28;100.00
7022;BME280;3552;42.664;23.406;2022-12-24T01:51:43;49963.19;;;-141.28;100.00
7022;BME280;3552;42.664;23.406;2022-12-24T01:54:14;49988.69;;;-141.28;100.00
7022;BME280;3552;42.664;23.406;2022-12-24T01:56:44;49969.06;;;-141.28;100.00
7022;BME280;3552;42.664;23.406;2022-12-24T01:59:16;50008.34;;;-141.28;100.00
7022;BME280;3552;42.664;23.406;2022-12-24T02:01:45;50000.47;;;-141.28;100.00
7022;BME280;3552;42.664;23.406;2022-12-24T02:04:18;49994.59;;;-141.28;100.00
7022;BME280;3552;42.664;23.406;2022-12-24T02:06:49;50020.09;;;-141.28;100.00
7022;BME280;3552;42.664;23.406;2022-12-24T02:09:17;50014.22;;;-141.28;100.00
7022;BME280;3552;42.664;23.406;2022-12-24T02:11:45;50037.78;;;-141.28;100.00
7022;BME280;3552;42.664;23.406;2022-12-24T02:14:12;49996.56;;;-141.28;100.00
7022;BME280;3552;42.664;23.406;2022-12-24T02:16:47;50035.81;;;-141.28;100.00
7022;BME280;3552;42.664;23.406;2022-12-24T02:22:12;50020.09;;;-141.28;100.00
7022;BME280;3552;42.664;23.406;2022-12-24T02:24:57;50024.03;;;-141.28;100.00
7022;BME280;3552;42.664;23.406;2022-12-24T02:27:40;50018.16;;;-141.28;100.00
7022;BME280;3552;42.664;23.406;2022-12-24T02:30:15;49996.56;;;-141.28;100.00
7022;BME280;3552;42.664;23.406;2022-12-24T02:33:08;50024.03;;;-141.28;100.00
7022;BME280;3552;42.664;23.406;2022-12-24T02:35:46;50020.09;;;-141.28;100.00
7022;BME280;3552;42.664;23.406;2022-12-24T02:38:18;50014.22;;;-141.28;100.00
7022;BME280;3552;42.664;23.406;2022-12-24T02:40:50;50055.44;;;-141.28;100.00
7022;BME280;3552;42.664;23.406;2022-12-24T02:43:20;50078.97;;;-141.28;100.00
7022;BME280;3552;42.664;23.406;2022-12-24T02:45:57;50133.94;;;-141.28;100.00
7022;BME280;3552;42.664;23.406;2022-12-24T02:48:26;50126.09;;;-141.28;100.00
7022;BME280;3552;42.664;23.406;2022-12-24T02:50:56;50112.34;;;-141.28;100.00
7022;BME280;3552;42.664;23.406;2022-12-24T02:53:23;50143.75;;;-141.28;100.00
7022;BME280;3552;42.664;23.406;2022-12-24T02:55:58;50173.19;;;-141.28;100.00
7022;BME280;3552;42.664;23.406;2022-12-24T02:58:38;50141.78;;;-141.28;100.00
7022;BME280;3552;42.664;23.406;2022-12-24T03:01:16;50130.00;;;-141.28;100.00
7022;BME280;3552;42.664;23.406;2022-12-24T03:03:58;50114.31;;;-141.28;100.00
7022;BME280;3552;42.664;23.406;2022-12-24T03:06:32;50126.09;;;-141.28;100.00
7022;BME280;3552;42.664;23.406;2022-12-24T03:09:09;50080.94;;;-141.28;100.00
7022;BME280;3552;42.664;23.406;2022-12-24T03:11:43;50130.00;;;-141.28;100.00
7022;BME280;3552;42.664;23.406;2022-12-24T03:14:13;50137.88;;;-141.28;100.00
7022;BME280;3552;42.664;23.406;2022-12-24T03:16:44;50126.09;;;-141.28;100.00
7022;BME280;3552;42.664;23.406;2022-12-24T03:19:11;50171.22;;;-141.28;100.00
7022;BME280;3552;42.664;23.406;2022-12-24T03:21:39;50147.69;;;-141.28;100.00
7022;BME280;3552;42.664;23.406;2022-12-24T03:24:07;50161.41;;;-141.28;100.00
7022;BME280;3552;42.664;23.406;2022-12-24T03:26:35;50157.50;;;-141.28;100.00
7022;BME280;3552;42.664;23.406;2022-12-24T03:29:03;50196.75;;;-141.28;100.00
7022;BME280;3552;42.664;23.406;2022-12-24T03:31:40;50173.19;;;-141.28;100.00
7022;BME280;3552;42.664;23.406;2022-12-24T03:34:09;50259.56;;;-141.28;100.00
7022;BME280;3552;42.664;23.406;2022-12-24T03:36:36;50322.34;;;-141.28;100.00
7022;BME280;3552;42.664;23.406;2022-12-24T03:39:03;50373.38;;;-141.28;100.00
7022;BME280;3552;42.664;23.406;2022-12-24T03:41:31;50400.88;;;-141.28;100.00
7022;BME280;3552;42.664;23.406;2022-12-24T03:43:58;50451.91;;;-141.28;100.00
7022;BME280;3552;42.664;23.406;2022-12-24T03:46:25;50447.97;;;-141.28;100.00
7022;BME280;3552;42.664;23.406;2022-12-24T03:48:52;50440.13;;;-141.28;100.00
7022;BME280;3552;42.664;23.406;2022-12-24T03:51:23;50485.28;;;-141.28;100.00
7022;BME280;3552;42.664;23.406;2022-12-24T03:53:51;50479.38;;;-141.28;100.00
7022;BME280;3552;42.664;23.406;2022-12-24T03:56:19;50514.72;;;-141.28;100.00
7022;BME280;3552;42.664;23.406;2022-12-24T03:58:46;50487.25;;;-141.28;100.00
7022;BME280;3552;42.664;23.406;2022-12-24T04:01:13;50502.94;;;-141.28;100.00
7022;BME280;3552;42.664;23.406;2022-12-24T04:03:40;50506.88;;;-141.28;100.00
7022;BME280;3552;42.664;23.406;2022-12-24T04:06:10;50491.16;;;-141.28;100.00
7022;BME280;3552;42.664;23.406;2022-12-24T04:08:39;50491.16;;;-141.28;100.00
7022;BME280;3552;42.664;23.406;2022-12-24T04:11:07;50550.06;;;-141.28;100.00
7022;BME280;3552;42.664;23.406;2022-12-24T04:13:34;50508.81;;;-141.28;100.00
7022;BME280;3552;42.664;23.406;2022-12-24T04:16:03;50479.38;;;-141.28;100.00
7022;BME280;3552;42.664;23.406;2022-12-24T04:18:30;50475.47;;;-141.28;100.00
7022;BME280;3552;42.664;23.406;2022-12-24T04:20:58;50483.31;;;-141.28;100.00
7022;BME280;3552;42.664;23.406;2022-12-24T04:23:25;50481.34;;;-141.28;100.00
7022;BME280;3552;42.664;23.406;2022-12-24T04:25:53;50461.72;;;-141.28;100.00
7022;BME280;3552;42.664;23.406;2022-12-24T04:28:20;50459.75;;;-141.28;100.00
7022;BME280;3552;42.664;23.406;2022-12-24T04:30:47;50481.34;;;-141.28;100.00
7022;BME280;3552;42.664;23.406;2022-12-24T04:33:14;50446.03;;;-141.28;100.00
7022;BME280;3552;42.664;23.406;2022-12-24T04:35:41;50424.44;;;-141.28;100.00
7022;BME280;3552;42.664;23.406;2022-12-24T04:38:08;50432.28;;;-141.28;100.00
7022;BME280;3552;42.664;23.406;2022-12-24T04:40:35;50414.63;;;-141.28;100.00
7022;BME280;3552;42.664;23.406;2022-12-24T04:43:04;50400.88;;;-141.28;100.00
7022;BME280;3552;42.664;23.406;2022-12-24T04:45:32;50357.69;;;-141.28;100.00
7022;BME280;3552;42.664;23.406;2022-12-24T04:47:59;50308.63;;;-141.28;100.00
7022;BME280;3552;42.664;23.406;2022-12-24T04:50:26;50357.69;;;-141.28;100.00
7022;BME280;3552;42.664;23.406;2022-12-24T04:52:53;50343.94;;;-141.28;100.00
7022;BME280;3552;42.664;23.406;2022-12-24T04:55:20;50343.94;;;-141.28;100.00
7022;BME280;3552;42.664;23.406;2022-12-24T04:57:47;50334.13;;;-141.28;100.00
7022;BME280;3552;42.664;23.406;2022-12-24T05:00:16;50334.13;;;-141.28;100.00
7022;BME280;3552;42.664;23.406;2022-12-24T05:02:43;50334.13;;;-141.28;100.00
7022;BME280;3552;42.664;23.406;2022-12-24T05:05:10;50330.22;;;-141.28;100.00
7022;BME280;3552;42.664;23.406;2022-12-24T05:07:37;50275.25;;;-141.28;100.00
7022;BME280;3552;42.664;23.406;2022-12-24T05:10:05;50330.22;;;-141.28;100.00
7022;BME280;3552;42.664;23.406;2022-12-24T05:12:32;50318.44;;;-141.28;100.00
7022;BME280;3552;42.664;23.406;2022-12-24T05:14:59;50322.34;;;-141.28;100.00
7022;BME280;3552;42.664;23.406;2022-12-24T05:17:29;50334.13;;;-141.28;100.00
7022;BME280;3552;42.664;23.406;2022-12-24T05:19:57;50255.63;;;-141.28;100.00
7022;BME280;3552;42.664;23.406;2022-12-24T05:22:24;50275.25;;;-141.28;100.00
7022;BME280;3552;42.664;23.406;2022-12-24T05:25:08;50275.25;;;-141.28;100.00
7022;BME280;3552;42.664;23.406;2022-12-24T05:27:52;50285.06;;;-141.28;100.00
7022;BME280;3552;42.664;23.406;2022-12-24T05:30:19;50251.69;;;-141.28;100.00
7022;BME280;3552;42.664;23.406;2022-12-24T05:32:48;50265.44;;;-141.28;100.00
7022;BME280;3552;42.664;23.406;2022-12-24T05:35:14;50302.72;;;-141.28;100.00
7022;BME280;3552;42.664;23.406;2022-12-24T05:37:42;50300.78;;;-141.28;100.00
7022;BME280;3552;42.664;23.406;2022-12-24T05:40:09;50312.53;;;-141.28;100.00
7022;BME280;3552;42.664;23.406;2022-12-24T05:42:36;50365.53;;;-141.28;100.00
7022;BME280;3552;42.664;23.406;2022-12-24T05:45:06;50349.84;;;-141.28;100.00
7022;BME280;3552;42.664;23.406;2022-12-24T05:47:33;50367.50;;;-141.28;100.00
7022;BME280;3552;42.664;23.406;2022-12-24T05:50:01;50393.03;;;-141.28;100.00
7022;BME280;3552;42.664;23.406;2022-12-24T05:52:28;50447.97;;;-141.28;100.00
7022;BME280;3552;42.664;23.406;2022-12-24T05:54:55;50408.72;;;-141.28;100.00
7022;BME280;3552;42.664;23.406;2022-12-24T05:57:22;50440.13;;;-141.28;100.00
7022;BME280;3552;42.664;23.406;2022-12-24T05:59:49;50422.47;;;-141.28;100.00
7022;BME280;3552;42.664;23.406;2022-12-24T06:02:16;50440.13;;;-141.28;100.00
7022;BME280;3552;42.664;23.406;2022-12-24T06:04:43;50471.53;;;-141.28;100.00
7022;BME280;3552;42.664;23.406;2022-12-24T06:07:11;50522.56;;;-141.28;100.00
7022;BME280;3552;42.664;23.406;2022-12-24T06:09:39;50514.72;;;-141.28;100.00
7022;BME280;3552;42.664;23.406;2022-12-24T06:12:07;50540.22;;;-141.28;100.00
7022;BME280;3552;42.664;23.406;2022-12-24T06:14:33;50585.38;;;-141.28;100.00
7022;BME280;3552;42.664;23.406;2022-12-24T06:17:00;50585.38;;;-141.28;100.00
7022;BME280;3552;42.664;23.406;2022-12-24T06:19:28;50620.72;;;-141.28;100.00
7022;BME280;3552;42.664;23.406;2022-12-24T06:21:54;50658.00;;;-141.28;100.00
7022;BME280;3552;42.664;23.406;2022-12-24T06:24:23;50681.56;;;-141.28;100.00
7022;BME280;3552;42.664;23.406;2022-12-24T06:26:50;50756.16;;;-141.28;100.00
7022;BME280;3552;42.664;23.406;2022-12-24T06:29:18;50883.75;;;-141.28;100.00
7022;BME280;3552;42.664;23.406;2022-12-24T06:31:45;51250.88;;;-141.28;100.00
7022;BME280;3552;42.664;23.406;2022-12-24T06:34:12;51570.91;;;-141.28;100.00
7022;BME280;3552;42.664;23.406;2022-12-24T06:36:39;51435.44;;;-141.28;100.00
7022;BME280;3552;42.664;23.406;2022-12-24T06:39:06;51084.00;;;-141.28;100.00
7022;BME280;3552;42.664;23.406;2022-12-24T06:41:34;50844.50;;;-141.28;100.00
7022;BME280;3552;42.664;23.406;2022-12-24T06:44:00;50691.38;;;-141.28;100.00
7022;BME280;3552;42.664;23.406;2022-12-24T06:46:27;50601.09;;;-141.28;100.00
7022;BME280;3552;42.664;23.406;2022-12-24T06:48:55;50577.53;;;-141.28;100.00
7022;BME280;3552;42.664;23.406;2022-12-24T06:51:22;50546.13;;;-141.28;100.00
7022;BME280;3552;42.664;23.406;2022-12-24T06:53:51;50534.34;;;-141.28;100.00
7022;BME280;3552;42.664;23.406;2022-12-24T06:56:20;50540.22;;;-141.28;100.00
7022;BME280;3552;42.664;23.406;2022-12-24T06:58:48;50573.59;;;-141.28;100.00
7022;BME280;3552;42.664;23.406;2022-12-24T07:01:17;50589.31;;;-141.28;100.00
7022;BME280;3552;42.664;23.406;2022-12-24T07:03:46;50589.31;;;-141.28;100.00
7022;BME280;3552;42.664;23.406;2022-12-24T07:06:16;51464.88;;;-141.28;100.00
7022;BME280;3552;42.664;23.406;2022-12-24T07:08:44;51665.16;;;-141.28;100.00
7022;BME280;3552;42.664;23.406;2022-12-24T07:11:11;51563.06;;;-141.28;100.00
7022;BME280;3552;42.664;23.406;2022-12-24T07:13:38;51488.44;;;-141.28;100.00
7022;BME280;3552;42.664;23.406;2022-12-24T07:16:07;51396.16;;;-141.28;100.00
7022;BME280;3552;42.664;23.406;2022-12-24T07:18:34;51292.13;;;-141.28;100.00
7022;BME280;3552;42.664;23.406;2022-12-24T07:21:02;51366.72;;;-141.28;100.00
7022;BME280;3552;42.664;23.406;2022-12-24T07:23:29;51500.22;;;-141.28;100.00
7022;BME280;3552;42.664;23.406;2022-12-24T07:25:59;51574.84;;;-141.28;100.00
7022;BME280;3552;42.664;23.406;2022-12-24T07:28:27;51488.44;;;-141.28;100.00
7022;BME280;3552;42.664;23.406;2022-12-24T07:30:54;51166.47;;;-141.28;100.00
7022;BME280;3552;42.664;23.406;2022-12-24T07:33:23;50993.69;;;-141.28;100.00
7022;BME280;3552;42.664;23.406;2022-12-24T07:35:57;50883.75;;;-141.28;100.00
7022;BME280;3552;42.664;23.406;2022-12-24T07:38:25;50711.00;;;-141.28;100.00
7022;BME280;3552;42.664;23.406;2022-12-24T07:40:52;50605.00;;;-141.28;100.00
7022;BME280;3552;42.664;23.406;2022-12-24T07:43:19;50538.28;;;-141.28;100.00
7022;BME280;3552;42.664;23.406;2022-12-24T07:45:46;50518.66;;;-141.28;100.00
7022;BME280;3552;42.664;23.406;2022-12-24T07:48:13;50520.59;;;-141.28;100.00
7022;BME280;3552;42.664;23.406;2022-12-24T07:50:42;50483.31;;;-141.28;100.00
7022;BME280;3552;42.664;23.406;2022-12-24T07:53:08;50510.78;;;-141.28;100.00
7022;BME280;3552;42.664;23.406;2022-12-24T07:55:36;50542.19;;;-141.28;100.00
7022;BME280;3552;42.664;23.406;2022-12-24T07:58:02;50487.25;;;-141.28;100.00
7022;BME280;3552;42.664;23.406;2022-12-24T08:00:29;50489.19;;;-141.28;100.00
7022;BME280;3552;42.664;23.406;2022-12-24T08:02:57;50416.56;;;-141.28;100.00
7022;BME280;3552;42.664;23.406;2022-12-24T08:05:24;50444.06;;;-141.28;100.00
7022;BME280;3552;42.664;23.406;2022-12-24T08:07:53;50440.13;;;-141.28;100.00
7022;BME280;3552;42.664;23.406;2022-12-24T08:10:20;50381.25;;;-141.28;100.00
7022;BME280;3552;42.664;23.406;2022-12-24T08:12:49;50447.97;;;-141.28;100.00
7022;BME280;3552;42.664;23.406;2022-12-24T08:15:17;50408.72;;;-141.28;100.00
7022;BME280;3552;42.664;23.406;2022-12-24T08:17:44;50404.81;;;-141.28;100.00
7022;BME280;3552;42.664;23.406;2022-12-24T08:20:11;50387.13;;;-141.28;100.00
7022;BME280;3552;42.664;23.406;2022-12-24T08:22:40;50357.69;;;-141.28;100.00
7022;BME280;3552;42.664;23.406;2022-12-24T08:25:09;50381.25;;;-141.28;100.00
7022;BME280;3552;42.664;23.406;2022-12-24T08:27:37;50369.47;;;-141.28;100.00
7022;BME280;3552;42.664;23.406;2022-12-24T08:30:05;50369.47;;;-141.28;100.00
7022;BME280;3552;42.664;23.406;2022-12-24T08:32:33;50385.16;;;-141.28;100.00
7022;BME280;3552;42.664;23.406;2022-12-24T08:35:00;50365.53;;;-141.28;100.00
7022;BME280;3552;42.664;23.406;2022-12-24T08:37:27;50338.06;;;-141.28;100.00
7022;BME280;3552;42.664;23.406;2022-12-24T08:39:54;50298.81;;;-141.28;100.00
7022;BME280;3552;42.664;23.406;2022-12-24T08:42:23;50310.59;;;-141.28;100.00
7022;BME280;3552;42.664;23.406;2022-12-24T08:44:50;50257.59;;;-141.28;100.00
7022;BME280;3552;42.664;23.406;2022-12-24T08:47:17;50306.66;;;-141.28;100.00
7022;BME280;3552;42.664;23.406;2022-12-24T08:49:44;50263.47;;;-141.28;100.00
7022;BME280;3552;42.664;23.406;2022-12-24T08:52:11;50247.78;;;-141.28;100.00
7022;BME280;3552;42.664;23.406;2022-12-24T08:54:39;50255.63;;;-141.28;100.00
7022;BME280;3552;42.664;23.406;2022-12-24T08:57:07;50243.84;;;-141.28;100.00
7022;BME280;3552;42.664;23.406;2022-12-24T08:59:35;50212.44;;;-141.28;100.00
7022;BME280;3552;42.664;23.406;2022-12-24T09:02:02;50204.59;;;-141.28;100.00
7022;BME280;3552;42.664;23.406;2022-12-24T09:04:29;50200.66;;;-141.28;100.00
7022;BME280;3552;42.664;23.406;2022-12-24T09:06:56;50141.78;;;-141.28;100.00
7022;BME280;3552;42.664;23.406;2022-12-24T09:09:23;50165.34;;;-141.28;100.00
7022;BME280;3552;42.664;23.406;2022-12-24T09:11:50;50153.56;;;-141.28;100.00
7022;BME280;3552;42.664;23.406;2022-12-24T09:14:17;50118.25;;;-141.28;100.00
7022;BME280;3552;42.664;23.406;2022-12-24T09:16:47;50139.81;;;-141.28;100.00
7022;BME280;3552;42.664;23.406;2022-12-24T09:19:13;50137.88;;;-141.28;100.00
7022;BME280;3552;42.664;23.406;2022-12-24T09:21:40;50137.88;;;-141.28;100.00
7022;BME280;3552;42.664;23.406;2022-12-24T09:24:07;50167.31;;;-141.28;100.00
7022;BME280;3552;42.664;23.406;2022-12-24T09:26:34;50153.56;;;-141.28;100.00
7022;BME280;3552;42.664;23.406;2022-12-24T09:29:02;50188.91;;;-141.28;100.00
7022;BME280;3552;42.664;23.406;2022-12-24T09:31:32;50181.03;;;-141.28;100.00
7022;BME280;3552;42.664;23.406;2022-12-24T09:34:03;50220.28;;;-141.28;100.00
7022;BME280;3552;42.664;23.406;2022-12-24T09:36:30;50206.56;;;-141.28;100.00
7022;BME280;3552;42.664;23.406;2022-12-24T09:38:59;50192.81;;;-141.28;100.00
7022;BME280;3552;42.664;23.406;2022-12-24T09:41:39;50173.19;;;-141.28;100.00
7022;BME280;3552;42.664;23.406;2022-12-24T09:44:19;50184.97;;;-141.28;100.00
7022;BME280;3552;42.664;23.406;2022-12-24T09:46:49;50247.78;;;-141.28;100.00
7022;BME280;3552;42.664;23.406;2022-12-24T09:49:22;50243.84;;;-141.28;100.00
7022;BME280;3552;42.664;23.406;2022-12-24T09:51:53;50232.06;;;-141.28;100.00
7022;BME280;3552;42.664;23.406;2022-12-24T09:54:24;50130.00;;;-141.28;100.00
7022;BME280;3552;42.664;23.406;2022-12-24T09:56:52;50161.41;;;-141.28;100.00
7022;BME280;3552;42.664;23.406;2022-12-24T09:59:23;50179.09;;;-141.28;100.00
7022;BME280;3552;42.664;23.406;2022-12-24T10:01:52;50184.97;;;-141.28;100.00
7022;BME280;3552;42.664;23.406;2022-12-24T10:04:24;50206.56;;;-141.28;100.00
7022;BME280;3552;42.664;23.406;2022-12-24T10:07:01;50224.22;;;-141.28;100.00
7022;BME280;3552;42.664;23.406;2022-12-24T10:09:40;50228.16;;;-141.28;100.00
7022;BME280;3552;42.664;23.406;2022-12-24T10:12:18;50192.81;;;-141.28;100.00
7022;BME280;3552;42.664;23.406;2022-12-24T10:14:57;50171.22;;;-141.28;100.00
7022;BME280;3552;42.664;23.406;2022-12-24T10:17:38;50165.34;;;-141.28;100.00
7022;BME280;3552;42.664;23.406;2022-12-24T10:20:36;50181.03;;;-141.28;100.00
7022;BME280;3552;42.664;23.406;2022-12-24T10:23:12;50216.38;;;-141.28;100.00
7022;BME280;3552;42.664;23.406;2022-12-24T10:25:47;50259.56;;;-141.28;100.00
7022;BME280;3552;42.664;23.406;2022-12-24T10:28:17;50302.72;;;-141.28;100.00
7022;BME280;3552;42.664;23.406;2022-12-24T10:30:47;50322.34;;;-141.28;100.00
7022;BME280;3552;42.664;23.406;2022-12-24T10:33:18;50326.28;;;-141.28;100.00
7022;BME280;3552;42.664;23.406;2022-12-24T10:35:51;50353.75;;;-141.28;100.00
7022;BME280;3552;42.664;23.406;2022-12-24T10:38:19;50402.84;;;-141.28;100.00
7022;BME280;3552;42.664;23.406;2022-12-24T10:40:47;50442.09;;;-141.28;100.00
7022;BME280;3552;42.664;23.406;2022-12-24T10:43:19;50420.50;;;-141.28;100.00
7022;BME280;3552;42.664;23.406;2022-12-24T10:45:49;50459.75;;;-141.28;100.00
7022;BME280;3552;42.664;23.406;2022-12-24T10:48:23;50502.94;;;-141.28;100.00
7022;BME280;3552;42.664;23.406;2022-12-24T10:50:58;50510.78;;;-141.28;100.00
7022;BME280;3552;42.664;23.406;2022-12-24T10:53:32;50438.16;;;-141.28;100.00
7022;BME280;3552;42.664;23.406;2022-12-24T10:56:05;50381.25;;;-141.28;100.00
7022;BME280;3552;42.664;23.406;2022-12-24T10:58:35;50312.53;;;-141.28;100.00
7022;BME280;3552;42.664;23.406;2022-12-24T11:01:02;50236.00;;;-141.28;100.00
7022;BME280;3552;42.664;23.406;2022-12-24T11:03:30;50161.41;;;-141.28;100.00
7022;BME280;3552;42.664;23.406;2022-12-24T11:06:03;50106.47;;;-141.28;100.00
7022;BME280;3552;42.664;23.406;2022-12-24T11:08:31;50039.72;;;-141.28;100.00
7022;BME280;3552;42.664;23.406;2022-12-24T11:11:00;49994.59;;;-141.28;100.00
7022;BME280;3552;42.664;23.406;2022-12-24T11:13:29;49965.16;;;-141.28;100.00
7022;BME280;3552;42.664;23.406;2022-12-24T11:16:01;49945.53;;;-141.28;100.00
7022;BME280;3552;42.664;23.406;2022-12-24T11:18:31;49957.31;;;-141.28;100.00
7022;BME280;3552;42.664;23.406;2022-12-24T11:21:00;49918.06;;;-141.28;100.00
7022;BME280;3552;42.664;23.406;2022-12-24T11:23:28;49929.81;;;-141.28;100.00
7022;BME280;3552;42.664;23.406;2022-12-24T11:25:55;49941.59;;;-141.28;100.00
7022;BME280;3552;42.664;23.406;2022-12-24T11:28:25;49969.06;;;-141.28;100.00
7022;BME280;3552;42.664;23.406;2022-12-24T11:30:58;49974.97;;;-141.28;100.00
7022;BME280;3552;42.664;23.406;2022-12-24T11:33:26;50004.41;;;-141.28;100.00
7022;BME280;3552;42.664;23.406;2022-12-24T11:35:58;50031.88;;;-141.28;100.00
7022;BME280;3552;42.664;23.406;2022-12-24T11:38:28;50118.25;;;-141.28;100.00
7022;BME280;3552;42.664;23.406;2022-12-24T11:41:00;50208.53;;;-141.28;100.00
7022;BME280;3552;42.664;23.406;2022-12-24T11:43:35;50273.28;;;-141.28;100.00
7022;BME280;3552;42.664;23.406;2022-12-24T11:46:15;50402.84;;;-141.28;100.00
7022;BME280;3552;42.664;23.406;2022-12-24T11:48:42;51260.69;;;-141.28;100.00
7022;BME280;3552;42.664;23.406;2022-12-24T11:51:22;50848.44;;;-141.28;100.00
7022;BME280;3552;42.664;23.406;2022-12-24T11:53:57;50644.28;;;-141.28;100.00
7022;BME280;3552;42.664;23.406;2022-12-24T11:56:32;50447.97;;;-141.28;100.00
7022;BME280;3552;42.664;23.406;2022-12-24T11:59:09;50338.06;;;-141.28;100.00
7022;BME280;3552;42.664;23.406;2022-12-24T12:01:46;50184.97;;;-141.28;100.00
7022;BME280;3552;42.664;23.406;2022-12-24T12:04:18;50122.16;;;-141.28;100.00
7022;BME280;3552;42.664;23.406;2022-12-24T12:06:49;50071.13;;;-141.28;100.00
7022;BME280;3552;42.664;23.406;2022-12-24T12:09:24;50063.28;;;-141.28;100.00
7022;BME280;3552;42.664;23.406;2022-12-24T12:11:55;49988.69;;;-141.28;100.00
7022;BME280;3552;42.664;23.406;2022-12-24T12:14:27;49973.00;;;-141.28;100.00
7022;BME280;3552;42.664;23.406;2022-12-24T12:17:00;49959.25;;;-141.28;100.00
7022;BME280;3552;42.664;23.406;2022-12-24T12:19:38;49906.28;;;-141.28;100.00
7022;BME280;3552;42.664;23.406;2022-12-24T12:22:15;49876.84;;;-141.28;100.00
7022;BME280;3552;42.664;23.406;2022-12-24T12:24:49;49810.13;;;-141.28;100.00
7022;BME280;3552;42.664;23.406;2022-12-24T12:27:21;49847.41;;;-141.28;100.00
7022;BME280;3552;42.664;23.406;2022-12-24T12:29:56;49823.84;;;-141.28;100.00
7022;BME280;3552;42.664;23.406;2022-12-24T12:32:31;49831.69;;;-141.28;100.00
7022;BME280;3552;42.664;23.406;2022-12-24T12:35:05;49839.56;;;-141.28;100.00
7022;BME280;3552;42.664;23.406;2022-12-24T12:37:42;49825.81;;;-141.28;100.00
7022;BME280;3552;42.664;23.406;2022-12-24T12:40:14;49816.00;;;-141.28;100.00
7022;BME280;3552;42.664;23.406;2022-12-24T12:42:47;49804.22;;;-141.28;100.00
7022;BME280;3552;42.664;23.406;2022-12-24T12:45:34;49827.78;;;-141.28;100.00
7022;BME280;3552;42.664;23.406;2022-12-24T12:48:18;49827.78;;;-141.28;100.00
7022;BME280;3552;42.664;23.406;2022-12-24T12:50:51;49870.94;;;-141.28;100.00
7022;BME280;3552;42.664;23.406;2022-12-24T12:53:30;49835.63;;;-141.28;100.00
7022;BME280;3552;42.664;23.406;2022-12-24T12:56:09;49831.69;;;-141.28;100.00